sensor_id;sensor_type;location;lat;lon;timestamp;noise_LAeq;noise_LA_min;noise_LA_max;noise_LA01;noise_LA95
76261;Laerm;65076;52.362;6.588;2023-10-19T00:05:06;62.58;48.66;79.40;;
76261;Laerm;65076;52.362;6.588;2023-10-19T00:10:10;57.28;44.83;79.73;;
76261;Laerm;65076;52.362;6.588;2023-10-19T00:12:44;60.05;43.29;79.87;;
76261;Laerm;65076;52.362;6.588;2023-10-19T00:20:31;61.08;45.59;81.62;;
76261;Laerm;65076;52.362;6.588;2023-10-19T00:25:47;59.89;45.11;79.21;;
76261;Laerm;65076;52.362;6.588;2023-10-19T00:30:49;62.72;47.26;80.51;;
76261;Laerm;65076;52.362;6.588;2023-10-19T00:33:21;62.65;47.81;79.96;;
76261;Laerm;65076;52.362;6.588;2023-10-19T00:45:57;56.34;38.74;81.06;;
76261;Laerm;65076;52.362;6.588;2023-10-19T00:48:32;56.00;38.78;79.34;;
76261;Laerm;65076;52.362;6.588;2023-10-19T00:51:05;56.78;40.33;80.76;;
76261;Laerm;65076;52.362;6.588;2023-10-19T00:58:55;56.68;38.50;80.60;;
76261;Laerm;65076;52.362;6.588;2023-10-19T01:04:00;55.76;36.94;80.09;;
76261;Laerm;65076;52.362;6.588;2023-10-19T01:09:02;57.10;37.86;80.36;;
76261;Laerm;65076;52.362;6.588;2023-10-19T01:11:38;51.08;37.02;75.07;;
76261;Laerm;65076;52.362;6.588;2023-10-19T01:19:18;51.92;37.83;76.50;;
76261;Laerm;65076;52.362;6.588;2023-10-19T01:26:54;48.88;36.52;78.65;;
76261;Laerm;65076;52.362;6.588;2023-10-19T01:34:26;47.45;36.94;74.25;;
76261;Laerm;65076;52.362;6.588;2023-10-19T01:37:01;48.88;36.72;74.60;;
76261;Laerm;65076;52.362;6.588;2023-10-19T01:44:39;50.23;36.67;79.39;;
76261;Laerm;65076;52.362;6.588;2023-10-19T01:52:05;50.69;36.80;75.46;;
76261;Laerm;65076;52.362;6.588;2023-10-19T01:54:39;56.09;38.18;81.12;;
76261;Laerm;65076;52.362;6.588;2023-10-19T02:04:43;55.23;37.73;80.10;;
76261;Laerm;65076;52.362;6.588;2023-10-19T02:09:44;53.88;37.42;76.22;;
76261;Laerm;65076;52.362;6.588;2023-10-19T02:14:48;53.05;36.73;79.15;;
76261;Laerm;65076;52.362;6.588;2023-10-19T02:22:22;51.27;37.06;75.44;;
76261;Laerm;65076;52.362;6.588;2023-10-19T02:27:27;54.03;36.96;78.28;;
76261;Laerm;65076;52.362;6.588;2023-10-19T02:32:32;55.61;38.06;77.18;;
76261;Laerm;65076;52.362;6.588;2023-10-19T02:35:06;52.68;38.70;75.37;;
76261;Laerm;65076;52.362;6.588;2023-10-19T02:42:44;52.61;37.73;76.18;;
76261;Laerm;65076;52.362;6.588;2023-10-19T02:47:48;60.48;37.30;77.70;;
76261;Laerm;65076;52.362;6.588;2023-10-19T02:55:26;54.89;37.70;80.90;;
76261;Laerm;65076;52.362;6.588;2023-10-19T03:03:07;48.53;37.16;75.63;;
76261;Laerm;65076;52.362;6.588;2023-10-19T03:05:42;54.89;38.70;70.11;;
76261;Laerm;65076;52.362;6.588;2023-10-19T03:13:18;47.40;39.37;72.67;;
76261;Laerm;65076;52.362;6.588;2023-10-19T03:18:24;56.19;39.80;75.86;;
76261;Laerm;65076;52.362;6.588;2023-10-19T03:25:56;48.03;40.11;67.53;;
76261;Laerm;65076;52.362;6.588;2023-10-19T03:31:22;53.08;38.92;73.33;;
76261;Laerm;65076;52.362;6.588;2023-10-19T03:36:26;51.21;41.16;72.64;;
76261;Laerm;65076;52.362;6.588;2023-10-19T03:43:57;55.40;41.43;77.06;;
76261;Laerm;65076;52.362;6.588;2023-10-19T03:46:29;56.93;40.46;71.06;;
76261;Laerm;65076;52.362;6.588;2023-10-19T03:54:29;54.69;40.18;71.03;;
76261;Laerm;65076;52.362;6.588;2023-10-19T04:02:03;49.06;40.70;78.22;;
76261;Laerm;65076;52.362;6.588;2023-10-19T04:07:05;53.29;42.34;66.47;;
76261;Laerm;65076;52.362;6.588;2023-10-19T04:09:53;60.57;42.46;77.06;;
76261;Laerm;65076;52.362;6.588;2023-10-19T04:17:58;45.71;40.86;58.67;;
76261;Laerm;65076;52.362;6.588;2023-10-19T04:22:56;67.13;42.96;79.80;;
76261;Laerm;65076;52.362;6.588;2023-10-19T04:30:38;54.45;42.01;68.55;;
76261;Laerm;65076;52.362;6.588;2023-10-19T04:35:37;53.84;42.95;66.31;;
76261;Laerm;65076;52.362;6.588;2023-10-19T04:40:43;61.98;44.36;77.07;;
76261;Laerm;65076;52.362;6.588;2023-10-19T04:48:24;53.81;44.74;67.38;;
76261;Laerm;65076;52.362;6.588;2023-10-19T04:53:28;57.77;45.46;74.82;;
76261;Laerm;65076;52.362;6.588;2023-10-19T04:56:04;60.15;43.30;76.63;;
76261;Laerm;65076;52.362;6.588;2023-10-19T04:58:38;50.89;42.88;64.48;;
76261;Laerm;65076;52.362;6.588;2023-10-19T05:06:13;58.31;44.59;68.38;;
76261;Laerm;65076;52.362;6.588;2023-10-19T05:11:21;62.38;45.86;78.11;;
76261;Laerm;65076;52.362;6.588;2023-10-19T05:16:21;56.18;44.28;66.46;;
76261;Laerm;65076;52.362;6.588;2023-10-19T05:21:27;60.40;45.24;77.04;;
76261;Laerm;65076;52.362;6.588;2023-10-19T05:29:00;58.30;48.77;71.60;;
76261;Laerm;65076;52.362;6.588;2023-10-19T05:31:33;60.40;46.43;80.09;;
76261;Laerm;65076;52.362;6.588;2023-10-19T05:41:43;60.02;46.75;73.33;;
76261;Laerm;65076;52.362;6.588;2023-10-19T05:44:17;60.18;46.01;67.93;;
76261;Laerm;65076;52.362;6.588;2023-10-19T05:49:24;59.80;46.66;72.34;;
76261;Laerm;65076;52.362;6.588;2023-10-19T05:54:26;58.28;45.34;67.29;;
76261;Laerm;65076;52.362;6.588;2023-10-19T05:57:02;61.92;44.80;76.02;;
76261;Laerm;65076;52.362;6.588;2023-10-19T06:02:06;59.95;45.96;68.79;;
76261;Laerm;65076;52.362;6.588;2023-10-19T06:04:38;58.77;45.23;67.22;;
76261;Laerm;65076;52.362;6.588;2023-10-19T06:12:20;62.10;47.37;70.64;;
76261;Laerm;65076;52.362;6.588;2023-10-19T06:17:21;60.68;45.97;68.71;;
76261;Laerm;65076;52.362;6.588;2023-10-19T06:19:54;63.63;53.35;73.14;;
76261;Laerm;65076;52.362;6.588;2023-10-19T06:27:26;58.07;47.87;67.56;;
76261;Laerm;65076;52.362;6.588;2023-10-19T06:37:32;58.79;48.35;73.85;;
76261;Laerm;65076;52.362;6.588;2023-10-19T06:42:38;61.59;46.17;74.77;;
76261;Laerm;65076;52.362;6.588;2023-10-19T06:47:37;55.64;45.01;71.85;;
76261;Laerm;65076;52.362;6.588;2023-10-19T06:55:18;59.37;50.13;74.25;;
76261;Laerm;65076;52.362;6.588;2023-10-19T06:57:57;55.74;46.48;64.37;;
76261;Laerm;65076;52.362;6.588;2023-10-19T07:08:00;57.18;47.06;66.43;;
76261;Laerm;65076;52.362;6.588;2023-10-19T07:13:10;56.88;45.32;69.78;;
76261;Laerm;65076;52.362;6.588;2023-10-19T07:18:16;54.96;44.80;66.39;;
76261;Laerm;65076;52.362;6.588;2023-10-19T07:25:48;59.37;45.99;71.19;;
76261;Laerm;65076;52.362;6.588;2023-10-19T07:30:56;61.76;47.39;74.95;;
76261;Laerm;65076;52.362;6.588;2023-10-19T07:38:25;54.80;44.67;66.28;;
76261;Laerm;65076;52.362;6.588;2023-10-19T07:40:59;61.64;47.50;74.47;;
76261;Laerm;65076;52.362;6.588;2023-10-19T07:43:38;56.26;43.52;65.83;;
76261;Laerm;65076;52.362;6.588;2023-10-19T07:51:08;58.12;46.03;75.90;;
76261;Laerm;65076;52.362;6.588;2023-10-19T07:53:41;56.19;45.75;65.82;;
76261;Laerm;65076;52.362;6.588;2023-10-19T08:03:49;55.64;45.11;65.58;;
76261;Laerm;65076;52.362;6.588;2023-10-19T08:11:25;60.04;47.11;76.39;;
76261;Laerm;65076;52.362;6.588;2023-10-19T08:16:24;66.86;46.05;77.43;;
76261;Laerm;65076;52.362;6.588;2023-10-19T08:23:59;55.91;44.82;65.03;;
76261;Laerm;65076;52.362;6.588;2023-10-19T08:31:29;55.19;46.28;65.24;;
76261;Laerm;65076;52.362;6.588;2023-10-19T08:34:05;55.24;45.40;66.88;;
76261;Laerm;65076;52.362;6.588;2023-10-19T08:44:08;53.99;45.08;63.82;;
76261;Laerm;65076;52.362;6.588;2023-10-19T08:51:46;60.58;47.32;73.08;;
76261;Laerm;65076;52.362;6.588;2023-10-19T08:54:21;59.53;46.84;74.59;;
76261;Laerm;65076;52.362;6.588;2023-10-19T09:02:06;59.60;49.40;70.84;;
76261;Laerm;65076;52.362;6.588;2023-10-19T09:04:50;56.48;49.76;64.39;;
76261;Laerm;65076;52.362;6.588;2023-10-19T09:09:51;58.42;48.14;73.71;;
76261;Laerm;65076;52.362;6.588;2023-10-19T09:17:28;54.96;46.97;65.85;;
76261;Laerm;65076;52.362;6.588;2023-10-19T09:25:01;59.84;45.87;76.60;;
76261;Laerm;65076;52.362;6.588;2023-10-19T09:32:32;58.97;46.48;73.45;;
76261;Laerm;65076;52.362;6.588;2023-10-19T09:35:07;57.83;45.14;69.78;;
76261;Laerm;65076;52.362;6.588;2023-10-19T09:40:19;63.56;51.31;75.68;;
76261;Laerm;65076;52.362;6.588;2023-10-19T09:45:27;58.61;52.20;65.98;;
76261;Laerm;65076;52.362;6.588;2023-10-19T09:52:57;56.87;47.86;71.31;;
76261;Laerm;65076;52.362;6.588;2023-10-19T09:58:09;54.30;47.74;62.25;;
76261;Laerm;65076;52.362;6.588;2023-10-19T10:03:44;58.84;45.91;73.89;;
76261;Laerm;65076;52.362;6.588;2023-10-19T10:11:20;59.24;41.13;72.94;;
76261;Laerm;65076;52.362;6.588;2023-10-19T10:18:55;54.94;44.40;64.12;;
76261;Laerm;65076;52.362;6.588;2023-10-19T10:23:59;55.89;44.37;66.48;;
76261;Laerm;65076;52.362;6.588;2023-10-19T10:29:11;53.68;44.48;67.60;;
76261;Laerm;65076;52.362;6.588;2023-10-19T10:39:44;60.94;43.56;75.35;;
76261;Laerm;65076;52.362;6.588;2023-10-19T10:44:47;64.98;44.07;78.29;;
76261;Laerm;65076;52.362;6.588;2023-10-19T10:47:27;56.07;41.20;67.79;;
76261;Laerm;65076;52.362;6.588;2023-10-19T11:18:05;53.46;40.50;66.39;;
76261;Laerm;65076;52.362;6.588;2023-10-19T11:23:08;54.29;39.29;71.56;;
76261;Laerm;65076;52.362;6.588;2023-10-19T11:30:36;57.12;48.30;68.53;;
76261;Laerm;65076;52.362;6.588;2023-10-19T11:33:12;54.54;39.38;72.73;;
76261;Laerm;65076;52.362;6.588;2023-10-19T11:40:46;59.57;41.46;74.21;;
76261;Laerm;65076;52.362;6.588;2023-10-19T11:45:48;54.55;38.74;65.25;;
76261;Laerm;65076;52.362;6.588;2023-10-19T11:48:22;53.60;38.58;67.43;;
76261;Laerm;65076;52.362;6.588;2023-10-19T12:06:04;57.28;41.55;70.52;;
76261;Laerm;65076;52.362;6.588;2023-10-19T12:11:05;58.17;40.94;75.03;;
76261;Laerm;65076;52.362;6.588;2023-10-19T12:16:19;56.30;41.16;66.04;;
76261;Laerm;65076;52.362;6.588;2023-10-19T12:21:36;59.27;43.67;72.29;;
76261;Laerm;65076;52.362;6.588;2023-10-19T12:24:10;54.28;42.66;65.08;;
76261;Laerm;65076;52.362;6.588;2023-10-19T12:29:17;53.68;45.27;65.52;;
76261;Laerm;65076;52.362;6.588;2023-10-19T12:36:54;54.58;41.39;65.02;;
76261;Laerm;65076;52.362;6.588;2023-10-19T12:41:59;58.36;40.39;74.95;;
76261;Laerm;65076;52.362;6.588;2023-10-19T12:47:05;54.59;42.03;63.62;;
76261;Laerm;65076;52.362;6.588;2023-10-19T12:52:21;53.42;41.39;65.30;;
76261;Laerm;65076;52.362;6.588;2023-10-19T12:54:52;54.03;42.58;63.11;;
76261;Laerm;65076;52.362;6.588;2023-10-19T13:04:54;65.84;41.56;77.33;;
76261;Laerm;65076;52.362;6.588;2023-10-19T13:12:30;59.85;43.76;74.07;;
76261;Laerm;65076;52.362;6.588;2023-10-19T13:17:34;54.92;41.76;65.22;;
76261;Laerm;65076;52.362;6.588;2023-10-19T13:22:38;52.44;41.90;62.93;;
76261;Laerm;65076;52.362;6.588;2023-10-19T13:27:48;52.12;42.87;62.90;;
76261;Laerm;65076;52.362;6.588;2023-10-19T13:35:23;53.94;45.15;62.88;;
76261;Laerm;65076;52.362;6.588;2023-10-19T13:45:22;59.84;44.27;73.88;;
76261;Laerm;65076;52.362;6.588;2023-10-19T13:50:25;57.39;42.26;72.46;;
76261;Laerm;65076;52.362;6.588;2023-10-19T13:55:36;55.89;43.96;66.18;;
76261;Laerm;65076;52.362;6.588;2023-10-19T14:00:44;55.29;46.09;66.14;;
76261;Laerm;65076;52.362;6.588;2023-10-19T14:05:47;54.83;42.56;67.63;;
76261;Laerm;65076;52.362;6.588;2023-10-19T14:08:23;57.87;44.99;68.44;;
76261;Laerm;65076;52.362;6.588;2023-10-19T14:16:05;56.77;43.07;66.09;;
76261;Laerm;65076;52.362;6.588;2023-10-19T14:23:50;56.55;43.38;66.94;;
76261;Laerm;65076;52.362;6.588;2023-10-19T14:31:27;53.68;43.38;67.69;;
76261;Laerm;65076;52.362;6.588;2023-10-19T14:36:31;57.30;44.90;72.46;;
76261;Laerm;65076;52.362;6.588;2023-10-19T14:41:32;61.93;49.39;74.63;;
76261;Laerm;65076;52.362;6.588;2023-10-19T14:46:36;58.94;48.21;68.43;;
76261;Laerm;65076;52.362;6.588;2023-10-19T14:51:37;64.24;45.95;83.63;;
76261;Laerm;65076;52.362;6.588;2023-10-19T14:54:14;59.70;45.86;71.81;;
76261;Laerm;65076;52.362;6.588;2023-10-19T14:59:16;53.69;47.27;65.23;;
76261;Laerm;65076;52.362;6.588;2023-10-19T15:04:22;57.81;45.59;66.19;;
76261;Laerm;65076;52.362;6.588;2023-10-19T15:06:56;58.05;48.09;66.66;;
76261;Laerm;65076;52.362;6.588;2023-10-19T15:09:31;61.45;50.49;78.06;;
76261;Laerm;65076;52.362;6.588;2023-10-19T15:19:36;59.06;47.46;67.52;;
76261;Laerm;65076;52.362;6.588;2023-10-19T15:24:50;60.92;48.50;76.41;;
76261;Laerm;65076;52.362;6.588;2023-10-19T15:29:54;62.65;48.08;74.85;;
76261;Laerm;65076;52.362;6.588;2023-10-19T15:35:03;57.43;47.37;67.18;;
76261;Laerm;65076;52.362;6.588;2023-10-19T15:40:08;58.16;45.27;66.30;;
76261;Laerm;65076;52.362;6.588;2023-10-19T15:45:11;58.41;46.28;67.62;;
76261;Laerm;65076;52.362;6.588;2023-10-19T15:53:12;57.51;45.38;66.86;;
76261;Laerm;65076;52.362;6.588;2023-10-19T16:00:59;58.70;46.10;68.24;;
76261;Laerm;65076;52.362;6.588;2023-10-19T16:03:32;55.76;44.57;67.10;;
76261;Laerm;65076;52.362;6.588;2023-10-19T16:11:13;58.82;42.64;75.74;;
76261;Laerm;65076;52.362;6.588;2023-10-19T16:18:46;55.76;42.22;67.27;;
76261;Laerm;65076;52.362;6.588;2023-10-19T16:26:22;53.73;44.82;66.11;;
76261;Laerm;65076;52.362;6.588;2023-10-19T16:31:23;57.89;50.56;68.83;;
76261;Laerm;65076;52.362;6.588;2023-10-19T16:33:57;55.46;43.47;77.06;;
76261;Laerm;65076;52.362;6.588;2023-10-19T16:41:31;61.07;46.67;76.70;;
76261;Laerm;65076;52.362;6.588;2023-10-19T16:51:35;60.08;44.20;75.21;;
76261;Laerm;65076;52.362;6.588;2023-10-19T16:56:40;55.66;47.43;63.44;;
76261;Laerm;65076;52.362;6.588;2023-10-19T17:01:44;55.45;43.52;64.34;;
76261;Laerm;65076;52.362;6.588;2023-10-19T17:09:23;59.45;44.12;75.32;;
76261;Laerm;65076;52.362;6.588;2023-10-19T17:12:04;59.96;43.44;73.78;;
76261;Laerm;65076;52.362;6.588;2023-10-19T17:19:34;57.29;43.41;74.36;;
76261;Laerm;65076;52.362;6.588;2023-10-19T17:22:07;57.72;44.42;65.30;;
76261;Laerm;65076;52.362;6.588;2023-10-19T17:29:52;55.60;41.62;67.79;;
76261;Laerm;65076;52.362;6.588;2023-10-19T17:37:23;57.67;41.02;73.05;;
76261;Laerm;65076;52.362;6.588;2023-10-19T17:47:26;53.28;40.03;65.08;;
76261;Laerm;65076;52.362;6.588;2023-10-19T17:52:27;55.32;42.40;65.98;;
76261;Laerm;65076;52.362;6.588;2023-10-19T17:55:02;55.67;41.21;65.46;;
76261;Laerm;65076;52.362;6.588;2023-10-19T18:02:45;50.84;40.78;60.55;;
76261;Laerm;65076;52.362;6.588;2023-10-19T18:07:48;54.42;40.55;63.84;;
76261;Laerm;65076;52.362;6.588;2023-10-19T18:10:20;59.21;39.84;75.56;;
76261;Laerm;65076;52.362;6.588;2023-10-19T18:17:58;52.66;38.99;63.75;;
76261;Laerm;65076;52.362;6.588;2023-10-19T18:28:09;50.96;39.90;62.40;;
76261;Laerm;65076;52.362;6.588;2023-10-19T18:33:13;50.10;39.33;62.03;;
76261;Laerm;65076;52.362;6.588;2023-10-19T18:35:46;48.17;38.23;69.60;;
76261;Laerm;65076;52.362;6.588;2023-10-19T18:38:21;61.54;42.42;75.73;;
76261;Laerm;65076;52.362;6.588;2023-10-19T18:43:28;53.84;39.71;65.80;;
76261;Laerm;65076;52.362;6.588;2023-10-19T18:48:32;53.55;39.11;68.65;;
76261;Laerm;65076;52.362;6.588;2023-10-19T18:53:52;51.98;40.86;74.15;;
76261;Laerm;65076;52.362;6.588;2023-10-19T18:59:00;51.47;38.83;68.94;;
76261;Laerm;65076;52.362;6.588;2023-10-19T19:04:11;50.70;38.39;63.30;;
76261;Laerm;65076;52.362;6.588;2023-10-19T19:06:46;63.24;39.05;79.01;;
76261;Laerm;65076;52.362;6.588;2023-10-19T19:09:22;60.32;41.38;75.73;;
76261;Laerm;65076;52.362;6.588;2023-10-19T19:16:55;70.92;38.43;83.43;;
76261;Laerm;65076;52.362;6.588;2023-10-19T19:22:03;60.90;39.53;74.74;;
76261;Laerm;65076;52.362;6.588;2023-10-19T19:29:43;52.51;37.53;67.72;;
76261;Laerm;65076;52.362;6.588;2023-10-19T19:34:48;51.30;38.28;63.20;;
76261;Laerm;65076;52.362;6.588;2023-10-19T19:39:53;58.66;37.54;76.45;;
76261;Laerm;65076;52.362;6.588;2023-10-19T19:44:53;66.31;38.44;78.77;;
76261;Laerm;65076;52.362;6.588;2023-10-19T19:47:25;47.51;37.48;61.68;;
76261;Laerm;65076;52.362;6.588;2023-10-19T19:55:04;49.03;36.57;60.91;;
76261;Laerm;65076;52.362;6.588;2023-10-19T20:02:46;52.71;39.44;67.88;;
76261;Laerm;65076;52.362;6.588;2023-10-19T20:07:54;57.39;37.94;75.15;;
76261;Laerm;65076;52.362;6.588;2023-10-19T20:10:39;57.45;37.62;74.95;;
76261;Laerm;65076;52.362;6.588;2023-10-19T20:18:21;48.98;38.57;67.96;;
76261;Laerm;65076;52.362;6.588;2023-10-19T20:28:31;52.22;38.91;63.68;;
76261;Laerm;65076;52.362;6.588;2023-10-19T20:31:05;51.11;40.42;68.27;;
76261;Laerm;65076;52.362;6.588;2023-10-19T20:38:36;45.85;38.19;58.80;;
76261;Laerm;65076;52.362;6.588;2023-10-19T20:41:13;56.27;39.86;73.62;;
76261;Laerm;65076;52.362;6.588;2023-10-19T20:48:56;48.49;37.00;63.28;;
76261;Laerm;65076;52.362;6.588;2023-10-19T20:51:35;55.21;36.70;70.69;;
76261;Laerm;65076;52.362;6.588;2023-10-19T20:54:13;52.94;36.98;67.23;;
76261;Laerm;65076;52.362;6.588;2023-10-19T21:01:47;50.81;38.02;61.92;;
76261;Laerm;65076;52.362;6.588;2023-10-19T21:06:50;57.74;38.47;71.09;;
76261;Laerm;65076;52.362;6.588;2023-10-19T21:11:51;60.21;37.45;78.60;;
76261;Laerm;65076;52.362;6.588;2023-10-19T21:14:23;44.62;37.09;54.80;;
76261;Laerm;65076;52.362;6.588;2023-10-19T21:21:59;58.88;38.22;73.87;;
76261;Laerm;65076;52.362;6.588;2023-10-19T21:32:06;49.04;35.86;65.63;;
76261;Laerm;65076;52.362;6.588;2023-10-19T21:37:12;57.59;38.23;75.90;;
76261;Laerm;65076;52.362;6.588;2023-10-19T21:42:19;47.94;37.12;64.19;;
76261;Laerm;65076;52.362;6.588;2023-10-19T21:49:51;49.52;37.36;68.36;;
76261;Laerm;65076;52.362;6.588;2023-10-19T21:54:56;50.66;36.37;67.14;;
76261;Laerm;65076;52.362;6.588;2023-10-19T22:04:51;41.74;36.00;52.33;;
76261;Laerm;65076;52.362;6.588;2023-10-19T22:09:57;57.97;36.69;74.64;;
76261;Laerm;65076;52.362;6.588;2023-10-19T22:14:58;40.47;35.19;60.89;;
76261;Laerm;65076;52.362;6.588;2023-10-19T22:17:32;66.03;36.41;77.00;;
76261;Laerm;65076;52.362;6.588;2023-10-19T22:22:35;45.64;34.60;65.79;;
76261;Laerm;65076;52.362;6.588;2023-10-19T22:27:49;47.25;35.18;65.05;;
76261;Laerm;65076;52.362;6.588;2023-10-19T22:32:52;50.63;35.86;67.63;;
76261;Laerm;65076;52.362;6.588;2023-10-19T22:37:53;39.02;35.35;48.74;;
76261;Laerm;65076;52.362;6.588;2023-10-19T22:40:26;42.14;35.84;59.00;;
76261;Laerm;65076;52.362;6.588;2023-10-19T22:48:07;45.30;36.46;63.57;;
76261;Laerm;65076;52.362;6.588;2023-10-19T22:58:11;38.98;35.57;50.46;;
76261;Laerm;65076;52.362;6.588;2023-10-19T23:08:26;39.01;34.10;49.75;;
76261;Laerm;65076;52.362;6.588;2023-10-19T23:13:26;36.23;33.80;41.76;;
76261;Laerm;65076;52.362;6.588;2023-10-19T23:18:36;38.62;34.85;55.28;;
76261;Laerm;65076;52.362;6.588;2023-10-19T23:21:13;37.69;33.91;48.09;;
76261;Laerm;65076;52.362;6.588;2023-10-19T23:28:55;41.32;35.30;53.01;;
76261;Laerm;65076;52.362;6.588;2023-10-19T23:36:34;38.23;34.51;54.97;;
76261;Laerm;65076;52.362;6.588;2023-10-19T23:44:10;49.84;33.68;67.10;;
76261;Laerm;65076;52.362;6.588;2023-10-19T23:49:13;39.57;34.91;52.62;;
76261;Laerm;65076;52.362;6.588;2023-10-19T23:56:49;37.97;33.75;49.47;;
76261;Laerm;65076;52.362;6.588;2023-10-19T23:59:26;42.36;34.82;56.66;;
